createdAt,value
2019-03-03T00:00:24.747Z,1.43
2019-03-03T00:03:00.343Z,1.40
2019-03-03T00:05:35.723Z,1.60
2019-03-03T00:08:12.281Z,1.10
2019-03-03T00:10:48.126Z,1.37
2019-03-03T00:13:27.243Z,1.43
2019-03-03T00:16:01.040Z,1.40
2019-03-03T00:18:35.731Z,1.60
2019-03-03T00:21:17.087Z,1.47
2019-03-03T00:23:53.311Z,1.60
2019-03-03T00:30:10.140Z,1.80
2019-03-03T00:32:50.092Z,1.67
2019-03-03T00:35:32.498Z,1.50
2019-03-03T00:38:25.348Z,1.77
2019-03-03T00:41:23.944Z,1.70
2019-03-03T00:44:19.448Z,1.97
2019-03-03T00:47:12.304Z,1.33
2019-03-03T00:50:07.198Z,1.67
2019-03-03T00:52:52.731Z,1.60
2019-03-03T00:55:55.363Z,1.63
2019-03-03T01:02:19.152Z,1.77
2019-03-03T01:05:06.063Z,1.47
2019-03-03T01:08:17.959Z,1.30
2019-03-03T01:11:19.743Z,1.47
2019-03-03T01:14:33.371Z,1.73
2019-03-03T01:24:18.744Z,1.80
2019-03-03T01:30:42.482Z,1.70
2019-03-03T01:36:36.588Z,2.03
2019-03-03T01:42:40.295Z,1.57
2019-03-03T01:48:19.443Z,2.00
2019-03-03T01:54:30.347Z,2.23
2019-03-03T01:57:05.171Z,2.33
2019-03-03T01:59:43.079Z,2.77
2019-03-03T02:02:17.771Z,2.77
2019-03-03T02:04:56.755Z,2.30
2019-03-03T02:17:55.262Z,3.20
2019-03-03T02:20:30.297Z,3.50
2019-03-03T02:26:46.334Z,2.03
2019-03-03T02:32:51.474Z,4.40
2019-03-03T02:35:26.769Z,4.00
2019-03-03T02:38:06.249Z,3.27
2019-03-03T02:44:12.254Z,2.63
2019-03-03T02:50:17.378Z,3.00
2019-03-03T02:52:54.260Z,2.73
2019-03-03T02:55:32.366Z,2.50
2019-03-03T02:58:15.384Z,2.43
2019-03-03T03:01:00.658Z,3.07
2019-03-03T03:07:20.299Z,3.53
2019-03-03T03:10:04.410Z,2.63
2019-03-03T03:13:01.793Z,3.03
2019-03-03T03:15:50.118Z,4.60
2019-03-03T03:18:42.155Z,5.13
2019-03-03T03:21:29.466Z,5.63
2019-03-03T03:24:16.582Z,6.90
2019-03-03T03:27:03.782Z,6.50
2019-03-03T03:30:12.590Z,6.93
2019-03-03T03:32:56.355Z,7.00
2019-03-03T03:35:38.796Z,7.07
2019-03-03T03:38:25.471Z,7.47
2019-03-03T03:41:20.578Z,7.60
2019-03-03T03:44:13.224Z,7.60
2019-03-03T03:47:18.365Z,6.97
2019-03-03T03:54:00.857Z,7.03
2019-03-03T04:00:16.404Z,6.60
2019-03-03T04:03:11.703Z,7.40
2019-03-03T04:06:03.822Z,7.50
2019-03-03T04:09:03.671Z,7.73
2019-03-03T04:15:42.713Z,6.63
2019-03-03T04:22:04.257Z,6.93
2019-03-03T04:28:41.352Z,5.37
2019-03-03T04:31:26.218Z,6.30
2019-03-03T04:41:11.122Z,5.43
2019-03-03T04:44:13.608Z,6.30
2019-03-03T04:50:53.782Z,5.27
2019-03-03T04:53:57.833Z,4.60
2019-03-03T04:56:53.411Z,4.10
2019-03-03T05:00:06.329Z,4.70
2019-03-03T05:02:58.156Z,5.10
2019-03-03T05:05:56.332Z,4.93
2019-03-03T05:08:42.448Z,5.00
2019-03-03T05:11:58.235Z,5.13
2019-03-03T05:14:37.827Z,6.17
2019-03-03T05:17:19.135Z,7.07
2019-03-03T05:20:00.828Z,7.40
2019-03-03T05:22:38.231Z,7.30
2019-03-03T05:25:19.031Z,8.20
2019-03-03T05:28:01.183Z,7.47
2019-03-03T05:30:41.967Z,7.50
2019-03-03T05:33:17.409Z,8.60
2019-03-03T05:35:59.192Z,8.70
2019-03-03T05:38:39.863Z,8.87
2019-03-03T05:41:17.238Z,8.73
2019-03-03T05:43:53.706Z,9.23
2019-03-03T05:46:36.737Z,8.30
2019-03-03T05:49:12.375Z,8.90
2019-03-03T05:51:47.856Z,8.67
2019-03-03T05:54:22.035Z,8.93
2019-03-03T05:56:58.294Z,10.10
2019-03-03T05:59:32.885Z,9.40
2019-03-03T06:02:21.473Z,8.77
2019-03-03T06:04:57.745Z,8.53
2019-03-03T06:07:32.835Z,8.43
2019-03-03T06:10:11.282Z,8.67
2019-03-03T06:13:08.030Z,8.87
2019-03-03T06:15:46.934Z,8.13
2019-03-03T06:18:22.389Z,8.57
2019-03-03T06:20:58.037Z,8.53
2019-03-03T06:23:36.845Z,7.43
2019-03-03T06:26:19.346Z,9.03
2019-03-03T06:28:54.405Z,8.67
2019-03-03T06:31:30.474Z,8.83
2019-03-03T06:34:08.979Z,8.93
2019-03-03T06:36:55.702Z,8.30
2019-03-03T06:39:38.911Z,8.30
2019-03-03T06:42:18.241Z,8.57
2019-03-03T06:44:57.183Z,9.07
2019-03-03T06:47:34.248Z,9.00
2019-03-03T06:50:08.053Z,8.80
2019-03-03T06:52:44.114Z,9.00
2019-03-03T06:55:18.569Z,8.47
2019-03-03T06:58:00.594Z,8.30
2019-03-03T07:00:34.586Z,8.00
2019-03-03T07:03:17.587Z,7.70
2019-03-03T07:05:54.433Z,7.47
2019-03-03T07:08:30.559Z,8.70
2019-03-03T07:11:09.995Z,8.77
2019-03-03T07:13:45.474Z,8.00
2019-03-03T07:16:19.564Z,8.53
2019-03-03T07:19:03.725Z,8.40
2019-03-03T07:21:43.283Z,7.37
2019-03-03T07:24:25.043Z,7.77
2019-03-03T07:27:06.041Z,8.63
2019-03-03T07:29:45.818Z,8.40
2019-03-03T07:32:26.424Z,7.07
2019-03-03T07:35:05.780Z,8.23
2019-03-03T07:37:46.755Z,8.13
2019-03-03T07:40:25.284Z,7.73
2019-03-03T07:43:01.124Z,8.30
2019-03-03T07:45:42.503Z,9.03
2019-03-03T07:48:19.477Z,8.43
2019-03-03T07:51:01.201Z,8.47
2019-03-03T07:53:38.131Z,8.03
2019-03-03T07:56:15.172Z,8.83
2019-03-03T07:58:51.600Z,8.10
2019-03-03T08:01:32.484Z,8.43
2019-03-03T08:04:08.281Z,7.87
2019-03-03T08:06:54.928Z,9.33
2019-03-03T08:09:34.474Z,8.60
2019-03-03T08:12:13.186Z,8.63
2019-03-03T08:14:51.913Z,7.53
2019-03-03T08:17:27.591Z,6.77
2019-03-03T08:20:06.069Z,6.70
2019-03-03T08:22:45.199Z,6.70
2019-03-03T08:25:21.440Z,7.10
2019-03-03T08:27:59.772Z,7.70
2019-03-03T08:30:37.378Z,7.03
2019-03-03T08:33:15.994Z,5.97
2019-03-03T08:35:56.956Z,7.00
2019-03-03T08:38:36.277Z,6.77
2019-03-03T08:41:14.005Z,6.87
2019-03-03T08:44:01.671Z,6.93
2019-03-03T08:47:05.219Z,6.33
2019-03-03T08:50:30.466Z,6.57
2019-03-03T08:53:25.938Z,7.30
2019-03-03T08:56:21.496Z,7.13
2019-03-03T08:59:24.338Z,7.87
2019-03-03T09:02:35.465Z,7.43
2019-03-03T09:05:44.038Z,7.30
2019-03-03T09:08:41.401Z,8.10
2019-03-03T09:11:30.356Z,7.43
2019-03-03T09:14:29.964Z,7.27
2019-03-03T09:17:25.070Z,6.90
2019-03-03T09:20:33.970Z,7.10
2019-03-03T09:23:29.818Z,6.60
2019-03-03T09:26:20.008Z,7.63
2019-03-03T09:29:07.959Z,6.73
2019-03-03T09:32:08.168Z,5.73
2019-03-03T09:35:10.063Z,5.37
2019-03-03T09:38:09.036Z,5.83
2019-03-03T09:40:58.125Z,2.87
2019-03-03T09:43:52.692Z,2.43
2019-03-03T09:53:41.686Z,3.43
2019-03-03T09:56:38.423Z,2.63
2019-03-03T09:59:57.083Z,2.40
2019-03-03T10:03:06.113Z,2.20
2019-03-03T10:09:51.001Z,2.00
2019-03-03T10:16:30.215Z,2.10
2019-03-03T10:19:35.089Z,2.83
2019-03-03T10:26:21.482Z,2.77
2019-03-03T10:32:59.340Z,2.27
2019-03-03T10:36:11.037Z,2.87
2019-03-03T10:42:53.742Z,2.30
2019-03-03T10:49:34.060Z,1.97
2019-03-03T10:52:15.863Z,2.60
2019-03-03T10:55:27.742Z,2.47
2019-03-03T10:58:22.034Z,2.60
2019-03-03T11:05:01.191Z,2.67
2019-03-03T11:11:26.226Z,1.90
2019-03-03T11:14:36.066Z,2.10
2019-03-03T11:21:26.490Z,1.90
2019-03-03T11:27:57.243Z,2.13
2019-03-03T11:31:25.517Z,2.20
2019-03-03T11:37:24.946Z,2.17
2019-03-03T11:43:52.531Z,2.17
2019-03-03T11:46:55.524Z,1.90
2019-03-03T11:49:51.767Z,2.30
2019-03-03T12:06:12.034Z,2.10
2019-03-03T12:09:12.444Z,2.40
2019-03-03T12:12:15.129Z,2.17
2019-03-03T12:18:53.060Z,2.50
2019-03-03T12:21:52.268Z,2.50
2019-03-03T12:24:50.019Z,2.53
2019-03-03T12:27:51.228Z,1.97
2019-03-03T12:30:45.143Z,2.40
2019-03-03T12:33:43.561Z,1.90
2019-03-03T12:43:38.548Z,2.20
2019-03-03T12:50:36.390Z,1.80
2019-03-03T12:53:49.187Z,2.20
2019-03-03T12:56:54.561Z,1.70
2019-03-03T13:06:46.549Z,1.90
2019-03-03T13:09:59.859Z,1.80
2019-03-03T13:12:55.562Z,2.00
2019-03-03T13:15:48.918Z,2.23
2019-03-03T13:18:53.036Z,2.27
2019-03-03T13:25:17.091Z,2.03
2019-03-03T13:28:12.126Z,2.40
2019-03-03T13:31:09.895Z,2.63
2019-03-03T13:34:03.977Z,2.17
2019-03-03T13:40:18.351Z,2.17
2019-03-03T13:43:09.613Z,2.40
2019-03-03T13:45:51.148Z,2.20
2019-03-03T13:48:39.494Z,2.30
2019-03-03T13:51:19.049Z,3.47
2019-03-03T13:54:06.680Z,2.00
2019-03-03T13:56:43.446Z,2.93
2019-03-03T13:59:21.618Z,2.47
2019-03-03T14:02:10.299Z,2.10
2019-03-03T14:04:49.224Z,1.57
2019-03-03T14:07:29.376Z,1.97
2019-03-03T14:10:11.168Z,4.37
2019-03-03T14:13:01.152Z,2.07
2019-03-03T14:15:42.128Z,2.20
2019-03-03T14:18:24.631Z,2.00
2019-03-03T14:21:03.457Z,1.93
2019-03-03T14:23:39.129Z,2.30
2019-03-03T14:26:23.454Z,1.87
2019-03-03T14:28:59.212Z,1.90
2019-03-03T14:31:38.131Z,2.20
2019-03-03T14:34:24.236Z,2.00
2019-03-03T14:37:03.271Z,2.30
2019-03-03T14:39:53.350Z,2.17
2019-03-03T14:42:36.359Z,1.70
2019-03-03T14:45:33.315Z,2.53
2019-03-03T14:48:22.623Z,2.47
2019-03-03T14:51:10.621Z,2.50
2019-03-03T14:53:58.148Z,2.30
2019-03-03T14:56:42.759Z,2.80
2019-03-03T14:59:33.227Z,2.73
2019-03-03T15:05:46.132Z,2.73
2019-03-03T15:08:29.574Z,2.87
2019-03-03T15:11:06.251Z,2.67
2019-03-03T15:13:45.158Z,5.17
2019-03-03T15:16:34.124Z,2.80
2019-03-03T15:22:41.120Z,2.93
2019-03-03T15:25:22.502Z,3.10
2019-03-03T15:28:40.132Z,3.33
2019-03-03T15:31:18.240Z,2.57
2019-03-03T15:37:25.255Z,3.13
2019-03-03T15:43:39.655Z,2.83
2019-03-03T15:46:18.646Z,2.33
2019-03-03T15:49:07.496Z,2.33
2019-03-03T15:51:52.158Z,2.63
2019-03-03T15:54:32.639Z,2.60
2019-03-03T15:57:09.390Z,2.60
2019-03-03T16:00:02.064Z,2.67
2019-03-03T16:03:03.504Z,3.20
2019-03-03T16:05:49.178Z,2.93
2019-03-03T16:08:37.531Z,2.63
2019-03-03T16:11:25.693Z,2.70
2019-03-03T16:13:56.707Z,3.20
2019-03-03T16:16:35.941Z,2.90
2019-03-03T16:19:13.439Z,3.20
2019-03-03T16:22:02.535Z,3.57
2019-03-03T16:24:41.100Z,3.37
2019-03-03T16:27:17.290Z,2.57
2019-03-03T16:29:55.586Z,2.87
2019-03-03T16:32:37.979Z,3.07
2019-03-03T16:35:15.166Z,3.40
2019-03-03T16:37:54.923Z,2.80
2019-03-03T16:40:39.477Z,2.67
2019-03-03T16:43:19.725Z,3.03
2019-03-03T16:49:18.537Z,3.07
2019-03-03T16:55:15.700Z,3.10
2019-03-03T16:57:58.942Z,3.20
2019-03-03T17:00:45.943Z,3.00
2019-03-03T17:07:09.739Z,3.50
2019-03-03T17:13:29.984Z,3.37
2019-03-03T17:16:59.562Z,3.43
2019-03-03T17:23:31.548Z,3.87
2019-03-03T17:29:43.480Z,3.97
2019-03-03T17:32:29.569Z,4.10
2019-03-03T17:35:09.976Z,4.40
2019-03-03T17:38:00.875Z,5.00
2019-03-03T17:40:44.555Z,4.27
2019-03-03T17:47:16.755Z,5.27
2019-03-03T17:49:57.931Z,6.03
2019-03-03T17:56:02.471Z,5.73
2019-03-03T18:02:13.081Z,4.73
2019-03-03T18:04:52.979Z,4.20
2019-03-03T18:07:33.286Z,4.40
2019-03-03T18:10:21.606Z,3.77
2019-03-03T18:13:02.579Z,3.83
2019-03-03T18:15:43.554Z,3.50
2019-03-03T18:18:23.501Z,3.77
2019-03-03T18:21:01.614Z,4.20
2019-03-03T18:23:41.761Z,3.60
2019-03-03T18:26:29.524Z,3.30
2019-03-03T18:29:09.859Z,3.77
2019-03-03T18:31:54.179Z,3.83
2019-03-03T18:34:42.666Z,4.13
2019-03-03T18:37:37.126Z,4.87
2019-03-03T18:40:13.406Z,4.57
2019-03-03T18:43:01.103Z,4.00
2019-03-03T18:45:35.992Z,4.30
2019-03-03T18:48:11.616Z,4.73
2019-03-03T18:51:01.796Z,4.73
2019-03-03T18:53:40.524Z,4.77
2019-03-03T18:56:20.467Z,4.17
2019-03-03T18:58:58.598Z,4.00
2019-03-03T19:01:36.483Z,4.67
2019-03-03T19:04:12.532Z,6.07
2019-03-03T19:06:57.400Z,4.80
2019-03-03T19:09:34.477Z,4.50
2019-03-03T19:12:13.195Z,5.50
2019-03-03T19:14:52.531Z,4.33
2019-03-03T19:17:31.471Z,5.67
2019-03-03T19:20:17.754Z,5.60
2019-03-03T19:22:59.561Z,6.90
2019-03-03T19:25:43.588Z,6.80
2019-03-03T19:28:31.284Z,7.53
2019-03-03T19:31:08.210Z,7.30
2019-03-03T19:33:50.407Z,5.40
2019-03-03T19:36:27.891Z,4.63
2019-03-03T19:39:07.430Z,5.10
2019-03-03T19:41:46.568Z,2.67
2019-03-03T19:44:35.125Z,3.07
2019-03-03T19:47:07.698Z,4.10
2019-03-03T19:49:44.007Z,3.33
2019-03-03T19:52:20.622Z,3.60
2019-03-03T19:55:01.017Z,3.87
2019-03-03T19:57:39.510Z,3.43
2019-03-03T20:00:23.540Z,2.90
2019-03-03T20:03:14.767Z,2.93
2019-03-03T20:05:54.997Z,3.20
2019-03-03T20:15:09.301Z,3.83
2019-03-03T20:17:54.570Z,4.10
2019-03-03T20:20:34.927Z,3.83
2019-03-03T20:23:13.852Z,3.27
2019-03-03T20:25:55.659Z,3.40
2019-03-03T20:28:34.046Z,3.93
2019-03-03T20:31:12.473Z,3.50
2019-03-03T20:33:58.614Z,3.63
2019-03-03T20:36:39.047Z,3.40
2019-03-03T20:39:35.462Z,4.10
2019-03-03T20:42:17.464Z,4.53
2019-03-03T20:45:10.322Z,4.00
2019-03-03T20:47:49.451Z,3.60
2019-03-03T20:50:29.599Z,3.30
2019-03-03T20:53:11.793Z,3.83
2019-03-03T20:59:33.085Z,4.20
2019-03-03T21:02:17.802Z,3.60
2019-03-03T21:04:57.535Z,3.60
2019-03-03T21:07:50.980Z,3.23
2019-03-03T21:10:26.656Z,3.73
2019-03-03T21:13:08.091Z,3.40
2019-03-03T21:15:46.555Z,2.93
2019-03-03T21:18:24.664Z,3.43
2019-03-03T21:21:22.161Z,3.40
2019-03-03T21:24:02.169Z,3.13
2019-03-03T21:26:48.458Z,3.00
2019-03-03T21:33:18.404Z,3.40
2019-03-03T21:35:55.933Z,3.00
2019-03-03T21:38:37.679Z,3.60
2019-03-03T21:41:17.545Z,3.93
2019-03-03T21:43:54.709Z,3.37
2019-03-03T21:46:32.404Z,2.73
2019-03-03T21:49:08.678Z,3.10
2019-03-03T21:51:51.895Z,2.70
2019-03-03T21:54:47.622Z,3.07
2019-03-03T21:57:23.679Z,2.80
2019-03-03T22:00:00.547Z,3.10
2019-03-03T22:02:38.878Z,2.60
2019-03-03T22:05:16.553Z,2.80
2019-03-03T22:07:53.632Z,2.43
2019-03-03T22:10:35.177Z,3.03
2019-03-03T22:13:18.572Z,3.07
2019-03-03T22:15:54.707Z,3.20
2019-03-03T22:18:35.680Z,2.70
2019-03-03T22:21:12.209Z,3.10
2019-03-03T22:23:58.463Z,2.80
2019-03-03T22:26:35.528Z,2.90
2019-03-03T22:29:17.305Z,2.80
2019-03-03T22:31:56.235Z,2.90
2019-03-03T22:34:39.067Z,2.90
2019-03-03T22:37:18.597Z,3.23
2019-03-03T22:39:57.721Z,2.43
2019-03-03T22:42:37.193Z,2.90
2019-03-03T22:45:19.297Z,2.97
2019-03-03T22:47:57.998Z,3.97
2019-03-03T22:50:41.216Z,3.37
2019-03-03T22:53:21.992Z,4.87
2019-03-03T22:56:04.812Z,5.73
2019-03-03T22:58:42.901Z,2.60
2019-03-03T23:01:28.441Z,2.80
2019-03-03T23:04:53.498Z,5.53
2019-03-03T23:08:18.468Z,5.47
2019-03-03T23:11:35.209Z,2.90
2019-03-03T23:18:40.168Z,4.93
2019-03-03T23:21:42.061Z,17.80
2019-03-03T23:25:08.258Z,21.77
2019-03-03T23:27:44.651Z,12.43
2019-03-03T23:30:30.652Z,4.73
2019-03-03T23:33:06.476Z,3.90
2019-03-03T23:35:42.520Z,3.40
2019-03-03T23:38:18.177Z,2.23
2019-03-03T23:40:53.202Z,6.77
2019-03-03T23:43:36.222Z,7.50
2019-03-03T23:46:15.969Z,13.20
2019-03-03T23:48:51.614Z,7.43
2019-03-03T23:51:29.313Z,6.43
2019-03-03T23:54:08.078Z,3.10
2019-03-03T23:56:50.036Z,2.30
2019-03-03T23:59:31.419Z,2.10
